Time;durP1;ratioP1;P1;durP2;ratioP2;P2;SDS_P1;SDS_P2;PMS_P1;PMS_P2;Temp;Humidity;BMP_temperature;BMP_pressure;BME280_temperature;BME280_humidity;BME280_pressure;Samples;Min_cycle;Max_cycle;Signal;HPM_P1;HPM_P2
2023/10/31 00:01:55;;;;;;;7.50;4.30;;;14.20;99.90;;;;;;5064443;28;20106;-67
2023/10/31 00:04:41;;;;;;;8.18;4.32;;;14.20;99.90;;;;;;5061551;28;20044;-68
2023/10/31 00:07:28;;;;;;;5.47;3.50;;;14.20;99.90;;;;;;5063121;28;20516;-67
2023/10/31 00:10:14;;;;;;;8.07;4.15;;;14.20;99.90;;;;;;5062845;28;20600;-67
2023/10/31 00:12:59;;;;;;;9.30;4.03;;;14.20;99.90;;;;;;5063229;28;20049;-67
2023/10/31 00:15:45;;;;;;;5.75;4.03;;;14.20;99.90;;;;;;5067140;28;20040;-67
2023/10/31 00:18:31;;;;;;;4.63;3.13;;;14.20;99.90;;;;;;5066838;28;20044;-67
2023/10/31 00:21:19;;;;;;;5.97;4.15;;;14.20;99.90;;;;;;5064723;28;20063;-67
2023/10/31 00:24:05;;;;;;;7.75;4.00;;;14.20;99.90;;;;;;5067056;28;20044;-67
2023/10/31 00:26:51;;;;;;;6.68;3.53;;;14.20;99.90;;;;;;5069736;28;20132;-67
2023/10/31 00:29:37;;;;;;;6.95;3.80;;;14.20;99.90;;;;;;5054057;28;20478;-67
2023/10/31 00:32:25;;;;;;;7.88;4.07;;;14.20;99.90;;;;;;5066714;28;20151;-68
2023/10/31 00:35:12;;;;;;;7.75;3.95;;;14.20;99.90;;;;;;5066878;28;20028;-68
2023/10/31 00:37:58;;;;;;;8.88;4.47;;;14.20;99.90;;;;;;5062299;28;20049;-68
2023/10/31 00:40:44;;;;;;;6.40;4.15;;;14.30;99.90;;;;;;5067972;28;20045;-68
2023/10/31 00:43:30;;;;;;;6.55;4.25;;;14.20;99.90;;;;;;5065342;28;20493;-70
2023/10/31 00:46:16;;;;;;;6.43;4.13;;;14.20;99.90;;;;;;5066393;28;20056;-68
2023/10/31 00:49:03;;;;;;;7.88;4.30;;;14.20;99.90;;;;;;5063397;28;20127;-69
2023/10/31 00:51:49;;;;;;;6.63;4.20;;;14.20;99.90;;;;;;5065698;28;20055;-69
2023/10/31 00:54:35;;;;;;;6.63;3.90;;;14.30;99.90;;;;;;5066073;28;20037;-68
2023/10/31 00:57:21;;;;;;;6.15;3.60;;;14.30;99.90;;;;;;5066460;28;20067;-69
2023/10/31 01:00:09;;;;;;;5.25;3.80;;;14.30;99.90;;;;;;5066239;28;20103;-68
2023/10/31 01:02:55;;;;;;;7.03;4.13;;;14.30;99.90;;;;;;5065758;28;20468;-69
2023/10/31 01:05:41;;;;;;;7.25;4.03;;;14.30;99.90;;;;;;5066248;28;20103;-69
2023/10/31 01:08:27;;;;;;;8.98;4.53;;;14.30;99.90;;;;;;5065940;28;20047;-68
2023/10/31 01:11:13;;;;;;;8.18;4.63;;;14.30;99.90;;;;;;5065587;28;20037;-70
2023/10/31 01:13:59;;;;;;;9.45;4.65;;;14.30;99.90;;;;;;5065477;28;20048;-69
2023/10/31 01:16:45;;;;;;;6.80;4.25;;;14.20;99.90;;;;;;5065515;28;20059;-68
2023/10/31 01:19:31;;;;;;;8.07;4.40;;;14.30;99.90;;;;;;5061739;28;20083;-68
2023/10/31 01:22:17;;;;;;;8.68;4.88;;;14.20;99.90;;;;;;5065637;28;20112;-68
2023/10/31 01:25:04;;;;;;;6.97;4.50;;;14.20;99.90;;;;;;5064892;28;20414;-68
2023/10/31 01:27:49;;;;;;;7.03;3.90;;;14.20;99.90;;;;;;5065036;28;20056;-67
2023/10/31 01:30:35;;;;;;;7.13;4.10;;;14.20;99.90;;;;;;5065741;28;20037;-67
2023/10/31 01:33:21;;;;;;;7.53;3.95;;;14.20;99.90;;;;;;5065687;28;20040;-68
2023/10/31 01:36:08;;;;;;;5.95;4.07;;;14.10;99.90;;;;;;5064752;28;20110;-67
2023/10/31 01:38:54;;;;;;;7.22;4.43;;;14.10;99.90;;;;;;5047949;28;20060;-68
2023/10/31 01:41:44;;;;;;;7.10;3.78;;;14.10;99.90;;;;;;5065483;28;20282;-67
2023/10/31 01:44:29;;;;;;;6.03;3.78;;;14.10;99.90;;;;;;5065665;28;20788;-67
2023/10/31 01:47:15;;;;;;;6.22;4.38;;;14.10;99.90;;;;;;5064639;28;20052;-67
2023/10/31 01:50:02;;;;;;;6.75;4.35;;;14.10;99.90;;;;;;5065304;28;20051;-68
2023/10/31 01:52:48;;;;;;;7.05;4.03;;;14.20;99.90;;;;;;5063562;28;20494;-68
2023/10/31 01:55:34;;;;;;;5.38;3.75;;;14.10;99.90;;;;;;5061203;28;20558;-68
2023/10/31 01:58:26;;;;;;;10.02;4.57;;;14.10;99.90;;;;;;5065238;28;20131;-68
2023/10/31 02:01:12;;;;;;;6.38;4.22;;;14.10;99.90;;;;;;5065468;28;20393;-67
2023/10/31 02:03:58;;;;;;;6.88;4.30;;;14.20;99.90;;;;;;5065430;28;20085;-67
2023/10/31 02:06:44;;;;;;;6.28;4.72;;;14.10;99.90;;;;;;5064779;28;20072;-67
2023/10/31 02:09:31;;;;;;;8.95;4.65;;;14.10;99.90;;;;;;5064953;28;20477;-68
2023/10/31 02:12:37;;;;;;;7.90;4.22;;;14.10;99.90;;;;;;5049344;28;20578;-68
2023/10/31 02:15:23;;;;;;;6.18;4.30;;;14.10;99.90;;;;;;5064825;28;20052;-68
2023/10/31 02:18:09;;;;;;;5.40;4.47;;;14.10;99.90;;;;;;5064681;28;20060;-68
2023/10/31 02:20:55;;;;;;;8.23;4.82;;;14.10;99.90;;;;;;5065086;28;20048;-68
2023/10/31 02:23:41;;;;;;;6.57;4.63;;;14.10;99.90;;;;;;5065087;28;20036;-68
2023/10/31 02:26:34;;;;;;;7.55;4.82;;;14.10;99.90;;;;;;5065231;28;20037;-68
2023/10/31 02:29:20;;;;;;;5.55;4.05;;;14.10;99.90;;;;;;5043556;28;20048;-68
2023/10/31 02:32:06;;;;;;;6.68;4.53;;;14.10;99.90;;;;;;5044966;28;20067;-68
2023/10/31 02:34:52;;;;;;;8.38;4.75;;;14.00;99.90;;;;;;5044934;28;20045;-68
2023/10/31 02:37:38;;;;;;;6.88;4.63;;;14.00;99.90;;;;;;5044442;28;20045;-68
2023/10/31 02:40:24;;;;;;;8.02;4.70;;;14.00;99.90;;;;;;5045838;28;20051;-68
2023/10/31 02:43:10;;;;;;;6.75;4.53;;;14.00;99.90;;;;;;5043350;28;20468;-68
2023/10/31 02:45:56;;;;;;;7.05;4.38;;;14.00;99.90;;;;;;5044672;28;20044;-66
2023/10/31 02:48:42;;;;;;;6.32;4.47;;;14.00;99.90;;;;;;5042190;28;20159;-68
2023/10/31 02:51:28;;;;;;;6.82;4.53;;;14.00;99.90;;;;;;5045012;28;20075;-69
2023/10/31 02:54:13;;;;;;;8.10;4.85;;;14.00;99.90;;;;;;5045191;28;20526;-68
2023/10/31 02:57:00;;;;;;;7.78;4.88;;;14.00;99.90;;;;;;5043956;28;20111;-68
2023/10/31 02:59:46;;;;;;;6.85;5.03;;;13.90;99.90;;;;;;5043666;28;20059;-68
2023/10/31 03:02:32;;;;;;;7.75;4.65;;;14.00;99.90;;;;;;5044530;28;20119;-69
2023/10/31 03:05:18;;;;;;;7.57;5.07;;;14.00;99.90;;;;;;5040460;28;20490;-69
2023/10/31 03:08:04;;;;;;;7.72;4.93;;;14.00;99.90;;;;;;5042673;28;20410;-69
2023/10/31 03:10:50;;;;;;;7.47;4.95;;;14.00;99.90;;;;;;5043447;28;20044;-68
2023/10/31 03:13:36;;;;;;;7.15;5.05;;;14.00;99.90;;;;;;5043786;28;20138;-69
2023/10/31 03:16:22;;;;;;;6.78;4.97;;;14.00;99.90;;;;;;5044172;28;20868;-67
2023/10/31 03:19:08;;;;;;;8.38;5.65;;;14.00;99.90;;;;;;5044325;28;20048;-68
2023/10/31 03:21:54;;;;;;;7.45;4.95;;;14.00;99.90;;;;;;5045298;28;20271;-67
2023/10/31 03:24:40;;;;;;;7.25;4.90;;;14.00;99.90;;;;;;5041504;28;20045;-68
2023/10/31 03:27:26;;;;;;;8.60;4.72;;;14.00;99.90;;;;;;5050485;28;20127;-67
2023/10/31 03:30:12;;;;;;;8.07;5.85;;;14.10;99.90;;;;;;5063496;28;20118;-67
2023/10/31 03:32:58;;;;;;;7.05;4.82;;;14.10;99.90;;;;;;5063571;28;20047;-67
2023/10/31 03:35:44;;;;;;;10.00;5.65;;;14.10;99.90;;;;;;5063910;28;20048;-74
2023/10/31 03:38:31;;;;;;;6.25;5.10;;;14.10;99.90;;;;;;5062444;28;20514;-76
2023/10/31 03:41:17;;;;;;;9.23;5.45;;;14.10;99.90;;;;;;5061535;28;20032;-75
2023/10/31 03:44:03;;;;;;;8.32;5.75;;;14.10;99.90;;;;;;5063258;28;20141;-76
2023/10/31 03:46:49;;;;;;;17.27;5.90;;;14.20;99.90;;;;;;5063320;28;20114;-75
2023/10/31 03:49:39;;;;;;;7.60;5.53;;;14.20;99.90;;;;;;5064681;28;20051;-72
2023/10/31 03:52:25;;;;;;;8.98;5.63;;;14.20;99.90;;;;;;5068240;28;20047;-70
2023/10/31 03:55:11;;;;;;;7.47;4.75;;;14.20;99.90;;;;;;5065914;28;20541;-70
2023/10/31 03:57:57;;;;;;;10.43;5.00;;;14.20;99.90;;;;;;5064063;28;21263;-70
2023/10/31 04:00:43;;;;;;;7.97;5.60;;;14.20;99.90;;;;;;5066817;28;20048;-69
2023/10/31 04:03:28;;;;;;;9.50;5.57;;;14.20;99.90;;;;;;5067019;28;20040;-68
2023/10/31 04:06:14;;;;;;;9.02;5.40;;;14.20;99.90;;;;;;5066384;28;20551;-69
2023/10/31 04:09:00;;;;;;;6.88;4.78;;;14.20;99.90;;;;;;5066943;28;20052;-68
2023/10/31 04:11:47;;;;;;;7.75;5.30;;;14.20;99.90;;;;;;5067221;28;20084;-69
2023/10/31 04:14:33;;;;;;;9.25;4.88;;;14.20;99.90;;;;;;5068317;28;20048;-69
2023/10/31 04:17:19;;;;;;;7.63;4.78;;;14.20;99.90;;;;;;5065751;28;21324;-69
2023/10/31 04:20:06;;;;;;;5.93;4.45;;;14.20;99.90;;;;;;5066777;28;20139;-68
2023/10/31 04:22:52;;;;;;;8.32;5.15;;;14.20;99.90;;;;;;5067015;28;20538;-69
2023/10/31 04:25:38;;;;;;;8.02;5.90;;;14.20;99.90;;;;;;5067237;28;20056;-69
2023/10/31 04:28:24;;;;;;;9.05;5.43;;;14.20;99.90;;;;;;5057509;28;20076;-70
2023/10/31 04:31:09;;;;;;;7.60;5.05;;;14.20;99.90;;;;;;5064301;28;20044;-70
2023/10/31 04:33:55;;;;;;;7.72;4.95;;;14.20;99.90;;;;;;5058612;28;20116;-70
2023/10/31 04:36:41;;;;;;;6.95;5.35;;;14.20;99.90;;;;;;5064121;28;20062;-69
2023/10/31 04:39:27;;;;;;;9.35;5.10;;;14.20;99.90;;;;;;5065936;28;20063;-69
2023/10/31 04:42:13;;;;;;;6.72;4.95;;;14.20;99.90;;;;;;5067026;28;20047;-68
2023/10/31 04:44:59;;;;;;;9.57;5.35;;;14.20;99.90;;;;;;5066065;28;20079;-68
2023/10/31 04:47:45;;;;;;;9.45;6.38;;;14.20;99.90;;;;;;5052225;28;20769;-69
2023/10/31 04:50:31;;;;;;;7.45;5.10;;;14.20;99.90;;;;;;5065301;28;20041;-69
2023/10/31 04:53:17;;;;;;;7.28;5.10;;;14.20;99.90;;;;;;5065907;28;20028;-69
2023/10/31 04:56:04;;;;;;;6.55;5.55;;;14.20;99.90;;;;;;5066463;28;20059;-69
2023/10/31 04:58:50;;;;;;;10.32;5.70;;;14.20;99.90;;;;;;5064772;28;20063;-69
2023/10/31 05:01:36;;;;;;;7.22;5.55;;;14.20;99.90;;;;;;5065332;28;20047;-69
2023/10/31 05:04:22;;;;;;;10.05;5.90;;;14.20;99.90;;;;;;5063076;28;20048;-69
2023/10/31 05:07:08;;;;;;;6.82;5.82;;;14.20;99.90;;;;;;5066756;28;20087;-69
2023/10/31 05:09:54;;;;;;;8.05;6.35;;;14.30;99.90;;;;;;5065954;28;20179;-70
2023/10/31 05:12:40;;;;;;;9.07;5.95;;;14.30;99.90;;;;;;5062839;28;20581;-70
2023/10/31 05:15:26;;;;;;;8.23;5.65;;;14.30;99.90;;;;;;5062860;28;20048;-70
2023/10/31 05:18:12;;;;;;;6.97;5.13;;;14.30;99.90;;;;;;5059335;28;20500;-70
2023/10/31 05:20:58;;;;;;;7.88;5.75;;;14.30;99.90;;;;;;5059311;28;20103;-71
2023/10/31 05:23:44;;;;;;;7.38;5.32;;;14.30;99.90;;;;;;5070901;28;20046;-70
2023/10/31 05:26:30;;;;;;;7.60;5.55;;;14.30;99.90;;;;;;5064781;28;20044;-70
2023/10/31 05:29:16;;;;;;;7.35;5.93;;;14.30;99.90;;;;;;5065211;28;20549;-69
2023/10/31 05:32:02;;;;;;;8.38;6.22;;;14.30;99.90;;;;;;5065638;28;20135;-69
2023/10/31 05:34:48;;;;;;;8.55;5.70;;;14.40;99.90;;;;;;5052189;28;20032;-69
2023/10/31 05:37:34;;;;;;;7.78;5.82;;;14.40;99.90;;;;;;5064054;28;20055;-70
2023/10/31 05:40:22;;;;;;;6.75;5.40;;;14.40;99.90;;;;;;5065604;28;20063;-70
2023/10/31 05:43:08;;;;;;;8.07;5.82;;;14.40;99.90;;;;;;5051300;28;20091;-70
2023/10/31 05:45:54;;;;;;;6.90;5.45;;;14.40;99.90;;;;;;5065057;28;20413;-71
2023/10/31 05:48:41;;;;;;;8.73;5.28;;;14.40;99.90;;;;;;5065122;28;20665;-71
2023/10/31 05:51:29;;;;;;;7.13;5.45;;;14.40;99.90;;;;;;5064622;28;20043;-70
2023/10/31 05:54:15;;;;;;;6.65;5.22;;;14.40;99.90;;;;;;5064623;28;20044;-70
2023/10/31 05:57:01;;;;;;;6.93;4.80;;;14.40;99.90;;;;;;5062144;28;20044;-70
2023/10/31 05:59:47;;;;;;;7.10;5.25;;;14.40;99.90;;;;;;5064482;28;20040;-70
2023/10/31 06:02:33;;;;;;;8.35;4.93;;;14.50;99.90;;;;;;5065454;28;20547;-70
2023/10/31 06:05:19;;;;;;;6.78;5.22;;;14.50;99.90;;;;;;5064868;28;20040;-70
2023/10/31 06:08:05;;;;;;;6.03;4.55;;;14.50;99.90;;;;;;5065830;28;20392;-70
2023/10/31 06:10:51;;;;;;;5.68;4.60;;;14.50;99.90;;;;;;5063951;28;20360;-70
2023/10/31 06:13:36;;;;;;;6.38;4.57;;;14.50;99.90;;;;;;5062145;28;20039;-70
2023/10/31 06:16:22;;;;;;;5.25;4.10;;;14.50;99.90;;;;;;5065019;28;21287;-69
2023/10/31 06:19:09;;;;;;;5.63;4.38;;;14.50;99.90;;;;;;5064679;28;20060;-70
2023/10/31 06:21:55;;;;;;;5.63;4.63;;;14.60;99.90;;;;;;5063098;28;20029;-70
2023/10/31 06:24:41;;;;;;;6.65;4.10;;;14.60;99.90;;;;;;5063547;28;20137;-69
2023/10/31 06:27:26;;;;;;;6.30;4.43;;;14.60;99.90;;;;;;5064470;28;20510;-71
2023/10/31 06:30:13;;;;;;;4.85;3.75;;;14.60;99.90;;;;;;5064559;28;20044;-70
2023/10/31 06:33:00;;;;;;;6.15;4.65;;;14.60;99.90;;;;;;5064932;28;20075;-70
2023/10/31 06:35:46;;;;;;;5.30;3.83;;;14.60;99.90;;;;;;5064977;28;20191;-69
2023/10/31 06:38:31;;;;;;;4.82;3.95;;;14.60;99.90;;;;;;5064282;28;20429;-69
2023/10/31 06:41:18;;;;;;;4.50;3.60;;;14.60;99.90;;;;;;5064643;28;20037;-71
2023/10/31 06:44:04;;;;;;;6.30;3.70;;;14.60;99.90;;;;;;5064837;28;20048;-71
2023/10/31 06:46:50;;;;;;;4.05;3.33;;;14.60;99.90;;;;;;5062510;28;20035;-70
2023/10/31 06:49:36;;;;;;;4.47;3.58;;;14.60;99.90;;;;;;5063084;28;20043;-70
2023/10/31 06:52:22;;;;;;;4.68;3.85;;;14.70;99.90;;;;;;5063369;28;20052;-70
2023/10/31 06:55:08;;;;;;;4.18;3.13;;;14.70;99.90;;;;;;5064238;28;20052;-70
2023/10/31 06:57:54;;;;;;;7.00;3.58;;;14.70;99.90;;;;;;5064455;28;20222;-70
2023/10/31 07:00:40;;;;;;;5.10;3.10;;;14.70;99.90;;;;;;5063591;28;20071;-70
2023/10/31 07:03:26;;;;;;;3.60;2.88;;;14.70;99.90;;;;;;5064394;28;20489;-71
2023/10/31 07:06:12;;;;;;;4.00;2.83;;;14.80;99.90;;;;;;5063962;28;20567;-70
2023/10/31 07:09:00;;;;;;;6.28;3.10;;;14.80;99.90;;;;;;5061116;28;20048;-71
2023/10/31 07:11:46;;;;;;;3.85;2.53;;;14.80;99.90;;;;;;5063695;28;20049;-70
2023/10/31 07:14:32;;;;;;;5.30;3.60;;;14.80;99.90;;;;;;5061716;28;20127;-69
2023/10/31 07:17:18;;;;;;;4.25;2.70;;;14.90;99.90;;;;;;5062148;28;20541;-70
2023/10/31 07:20:05;;;;;;;4.18;2.95;;;14.90;99.90;;;;;;5062706;28;20132;-69
2023/10/31 07:22:51;;;;;;;4.47;3.03;;;14.90;99.90;;;;;;5063116;28;20102;-69
2023/10/31 07:25:37;;;;;;;3.70;2.55;;;14.90;99.90;;;;;;5060501;28;20501;-70
2023/10/31 07:28:23;;;;;;;7.28;2.78;;;14.90;99.90;;;;;;5064061;28;20182;-65
2023/10/31 07:31:09;;;;;;;4.38;2.22;;;15.00;99.90;;;;;;5063894;28;20056;-67
2023/10/31 07:33:56;;;;;;;3.85;2.42;;;15.00;99.90;;;;;;5059713;28;20399;-63
2023/10/31 07:36:42;;;;;;;2.88;1.88;;;14.90;99.90;;;;;;5057319;28;20421;-61
2023/10/31 07:39:28;;;;;;;2.40;1.85;;;15.00;99.90;;;;;;5058165;28;20056;-62
2023/10/31 07:42:14;;;;;;;2.70;1.95;;;15.00;99.90;;;;;;5061696;28;20135;-61
2023/10/31 07:45:00;;;;;;;2.90;1.70;;;15.00;99.90;;;;;;5061171;28;20040;-61
2023/10/31 07:47:45;;;;;;;2.35;1.58;;;14.90;99.90;;;;;;5067077;28;20234;-62
2023/10/31 07:50:31;;;;;;;3.47;1.85;;;14.90;99.90;;;;;;5059829;28;20044;-61
2023/10/31 07:53:17;;;;;;;2.67;1.60;;;14.90;99.90;;;;;;5059363;28;20044;-62
2023/10/31 07:56:04;;;;;;;3.58;1.80;;;14.90;99.90;;;;;;5054478;28;21214;-63
2023/10/31 07:58:50;;;;;;;1.98;1.45;;;14.90;99.90;;;;;;5052312;28;20141;-63
2023/10/31 08:01:36;;;;;;;5.30;1.45;;;14.90;99.90;;;;;;5059812;28;20048;-63
2023/10/31 08:04:21;;;;;;;3.08;1.70;;;14.80;99.90;;;;;;5058084;28;20037;-63
2023/10/31 08:07:07;;;;;;;2.97;1.40;;;14.80;99.90;;;;;;5047011;28;20042;-62
2023/10/31 08:09:53;;;;;;;2.70;1.45;;;14.80;99.90;;;;;;5056991;28;20536;-63
2023/10/31 08:12:39;;;;;;;2.45;1.35;;;14.70;99.90;;;;;;5054779;28;20477;-62
2023/10/31 08:15:25;;;;;;;2.53;1.10;;;14.80;99.90;;;;;;5054446;28;20060;-63
2023/10/31 08:18:11;;;;;;;2.10;1.17;;;14.70;99.90;;;;;;5059267;28;20041;-64
2023/10/31 08:20:57;;;;;;;17.40;2.25;;;14.70;99.90;;;;;;5057778;28;20045;-64
2023/10/31 08:23:46;;;;;;;1.77;1.10;;;14.70;99.90;;;;;;5051504;28;20147;-64
2023/10/31 08:26:32;;;;;;;1.55;1.17;;;14.70;99.90;;;;;;5056200;28;20052;-64
2023/10/31 08:29:18;;;;;;;1.98;1.17;;;14.70;99.90;;;;;;5060581;28;20120;-64
2023/10/31 08:32:05;;;;;;;3.08;1.20;;;14.70;99.90;;;;;;5057496;28;20086;-64
2023/10/31 08:34:53;;;;;;;1.42;1.02;;;14.70;99.90;;;;;;5054686;28;20550;-63
2023/10/31 08:37:39;;;;;;;1.33;1.00;;;14.70;99.90;;;;;;5061465;28;20056;-64
2023/10/31 08:40:25;;;;;;;2.10;1.02;;;14.70;99.90;;;;;;5066157;28;20489;-64
2023/10/31 08:43:11;;;;;;;1.70;0.90;;;14.70;99.90;;;;;;5060880;28;20402;-64
2023/10/31 08:45:57;;;;;;;1.88;1.27;;;14.80;99.90;;;;;;5060085;28;20106;-66
2023/10/31 08:48:43;;;;;;;1.00;0.88;;;14.80;99.90;;;;;;5061803;28;20052;-63
2023/10/31 08:51:29;;;;;;;1.30;1.00;;;14.90;99.90;;;;;;5064059;28;20094;-63
2023/10/31 08:54:15;;;;;;;0.88;0.77;;;15.00;99.90;;;;;;5063399;28;20032;-63
2023/10/31 08:57:01;;;;;;;1.10;0.80;;;15.00;99.90;;;;;;5066173;28;20047;-62
2023/10/31 08:59:47;;;;;;;1.33;0.90;;;15.10;99.90;;;;;;5062220;28;20088;-64
2023/10/31 09:02:33;;;;;;;1.50;1.20;;;15.10;99.90;;;;;;5061290;28;20147;-63
2023/10/31 09:05:19;;;;;;;1.88;1.10;;;15.10;99.90;;;;;;5059066;28;20049;-61
2023/10/31 09:08:05;;;;;;;0.90;0.85;;;15.10;99.90;;;;;;5065034;28;20048;-63
2023/10/31 09:10:51;;;;;;;6.55;0.88;;;15.20;99.90;;;;;;5042691;28;20059;-65
2023/10/31 09:13:37;;;;;;;1.77;1.00;;;15.20;99.90;;;;;;5060134;28;20033;-65
2023/10/31 09:16:23;;;;;;;1.30;0.60;;;15.20;99.90;;;;;;5066874;28;20108;-70
2023/10/31 09:19:09;;;;;;;0.80;0.80;;;15.20;99.90;;;;;;5072143;28;20147;-74
2023/10/31 09:21:55;;;;;;;3.97;0.90;;;15.30;99.90;;;;;;5063490;28;20123;-71
2023/10/31 09:24:42;;;;;;;6.95;1.13;;;15.30;99.90;;;;;;5066143;28;20075;-68
2023/10/31 09:27:28;;;;;;;1.02;0.93;;;15.20;99.90;;;;;;5066032;28;20048;-71
2023/10/31 09:30:14;;;;;;;0.85;0.70;;;15.20;99.90;;;;;;5063387;28;20052;-70
2023/10/31 09:33:00;;;;;;;1.95;0.98;;;15.30;99.90;;;;;;5062286;28;20504;-69
2023/10/31 09:35:46;;;;;;;2.70;1.10;;;15.20;99.90;;;;;;5062242;28;20059;-76
2023/10/31 09:38:32;;;;;;;1.20;0.80;;;15.30;99.90;;;;;;5066466;28;20056;-74
2023/10/31 09:41:18;;;;;;;3.92;1.10;;;15.30;99.90;;;;;;5064177;28;20068;-79
2023/10/31 09:44:05;;;;;;;3.60;1.02;;;15.20;99.90;;;;;;5065413;28;20486;-79
2023/10/31 09:46:54;;;;;;;2.28;0.98;;;15.30;99.90;;;;;;5064822;28;20082;-79
2023/10/31 09:49:40;;;;;;;1.70;1.15;;;15.30;99.90;;;;;;5051356;28;20123;-74
2023/10/31 09:52:26;;;;;;;2.47;1.00;;;15.30;99.90;;;;;;5066011;28;20044;-76
2023/10/31 09:55:12;;;;;;;1.08;0.98;;;15.30;99.90;;;;;;5065752;28;20036;-77
2023/10/31 09:57:58;;;;;;;2.00;1.15;;;15.20;99.90;;;;;;5064058;28;20037;-77
2023/10/31 10:00:44;;;;;;;1.02;0.85;;;15.30;99.90;;;;;;5063244;28;20049;-76
2023/10/31 10:03:30;;;;;;;0.85;0.75;;;15.40;99.90;;;;;;5057679;28;20589;-79
2023/10/31 10:06:21;;;;;;;1.17;1.00;;;15.40;99.90;;;;;;5057442;28;20602;-85
2023/10/31 10:09:08;;;;;;;2.10;1.30;;;15.40;99.90;;;;;;5060792;28;20048;-73
2023/10/31 10:11:55;;;;;;;1.60;1.08;;;15.40;99.90;;;;;;5060808;28;20468;-74
2023/10/31 10:14:41;;;;;;;1.15;0.98;;;15.40;99.90;;;;;;5064940;28;20041;-74
2023/10/31 10:17:27;;;;;;;1.30;1.00;;;15.50;99.90;;;;;;5050498;28;20568;-73
2023/10/31 10:20:13;;;;;;;1.63;1.13;;;15.40;99.90;;;;;;5057321;28;20044;-74
2023/10/31 10:23:04;;;;;;;1.80;1.27;;;15.40;99.70;;;;;;5063574;28;20482;-73
2023/10/31 10:25:50;;;;;;;3.67;1.27;;;15.40;99.90;;;;;;5069111;28;20135;-74
2023/10/31 10:28:36;;;;;;;3.22;1.20;;;15.40;99.90;;;;;;5050028;28;20061;-74
2023/10/31 10:31:24;;;;;;;1.63;1.00;;;15.50;99.90;;;;;;5058602;28;20119;-74
2023/10/31 10:34:10;;;;;;;2.60;1.20;;;15.50;99.90;;;;;;5050527;28;20125;-73
2023/10/31 10:36:58;;;;;;;4.05;1.45;;;15.60;99.90;;;;;;5043824;28;20045;-75
2023/10/31 10:39:47;;;;;;;2.30;1.10;;;15.60;99.90;;;;;;5069715;28;20077;-76
2023/10/31 10:42:43;;;;;;;3.17;1.20;;;15.60;99.80;;;;;;5069534;28;20044;-75
2023/10/31 10:45:30;;;;;;;1.40;1.10;;;15.70;99.70;;;;;;5070791;28;20040;-72
2023/10/31 10:48:18;;;;;;;1.67;1.08;;;15.80;99.70;;;;;;5064768;28;20033;-73
2023/10/31 10:51:18;;;;;;;1.42;1.00;;;15.80;99.60;;;;;;5049969;28;20226;-72
2023/10/31 10:54:09;;;;;;;3.47;1.10;;;15.90;99.50;;;;;;5050589;28;20543;-73
2023/10/31 10:57:02;;;;;;;1.90;1.35;;;15.90;99.40;;;;;;5052992;28;20037;-72
2023/10/31 10:59:53;;;;;;;2.33;1.50;;;15.90;99.30;;;;;;5066906;28;20052;-72
2023/10/31 11:02:42;;;;;;;1.40;1.27;;;16.00;99.10;;;;;;5070169;28;20397;-72
2023/10/31 11:05:28;;;;;;;2.42;1.48;;;16.00;98.90;;;;;;5069127;28;20308;-73
2023/10/31 11:08:15;;;;;;;2.42;1.52;;;16.10;98.90;;;;;;5069186;28;20486;-74
2023/10/31 11:11:02;;;;;;;3.30;1.83;;;16.10;98.70;;;;;;5068915;28;20048;-75
2023/10/31 11:13:49;;;;;;;2.65;1.60;;;16.10;98.70;;;;;;5068656;28;20056;-73
2023/10/31 11:16:51;;;;;;;4.00;1.70;;;16.00;98.60;;;;;;5051299;28;20399;-74
2023/10/31 11:19:37;;;;;;;2.90;1.50;;;16.10;98.50;;;;;;5048700;28;20123;-73
2023/10/31 11:22:23;;;;;;;2.65;1.70;;;16.00;98.40;;;;;;5049517;28;20033;-73
2023/10/31 11:25:12;;;;;;;2.85;1.63;;;16.00;98.40;;;;;;5051139;28;20040;-74
2023/10/31 11:28:12;;;;;;;2.47;1.70;;;16.10;98.30;;;;;;5060141;28;20141;-73
2023/10/31 11:31:00;;;;;;;2.30;1.58;;;16.10;98.30;;;;;;5069086;28;20040;-74
2023/10/31 11:33:47;;;;;;;2.92;1.90;;;16.00;98.30;;;;;;5068806;28;20044;-73
2023/10/31 11:36:36;;;;;;;2.45;1.67;;;16.00;98.20;;;;;;5069893;28;20105;-74
2023/10/31 11:39:25;;;;;;;2.60;1.55;;;16.00;98.20;;;;;;5067810;28;20045;-74
2023/10/31 11:42:18;;;;;;;2.65;1.50;;;16.00;98.20;;;;;;5068595;28;20032;-74
2023/10/31 11:45:04;;;;;;;2.50;1.90;;;15.90;98.00;;;;;;5068463;28;20043;-74
2023/10/31 11:47:51;;;;;;;2.30;1.42;;;15.90;98.10;;;;;;5068935;28;20082;-74
2023/10/31 11:50:38;;;;;;;2.25;1.42;;;15.90;98.10;;;;;;5069117;28;20557;-72
2023/10/31 11:53:24;;;;;;;2.10;1.60;;;15.90;98.10;;;;;;5068695;28;20036;-73
2023/10/31 11:56:11;;;;;;;2.15;1.77;;;15.90;98.10;;;;;;5067424;28;20314;-75
2023/10/31 11:59:00;;;;;;;2.08;1.30;;;15.90;98.20;;;;;;5053287;28;20414;-75
2023/10/31 12:01:47;;;;;;;2.45;1.25;;;15.80;98.10;;;;;;5064259;28;20053;-72
2023/10/31 12:04:33;;;;;;;2.40;1.30;;;15.80;98.20;;;;;;5064430;28;20090;-72
2023/10/31 12:07:19;;;;;;;3.17;1.30;;;15.90;98.20;;;;;;5067968;28;20457;-73
2023/10/31 12:10:05;;;;;;;1.60;1.10;;;15.80;98.00;;;;;;5041017;28;20045;-72
2023/10/31 12:12:51;;;;;;;2.22;1.42;;;15.80;98.00;;;;;;5065160;28;20053;-75
2023/10/31 12:15:37;;;;;;;2.28;1.20;;;15.80;97.90;;;;;;5056357;28;20090;-73
2023/10/31 12:18:23;;;;;;;1.23;0.95;;;15.80;97.90;;;;;;5069128;28;20059;-74
2023/10/31 12:21:12;;;;;;;0.95;0.80;;;15.80;97.90;;;;;;5058091;28;20037;-75
2023/10/31 12:24:03;;;;;;;5.07;1.10;;;15.80;97.80;;;;;;5066290;28;20060;-71
2023/10/31 12:26:51;;;;;;;1.10;1.00;;;15.70;97.60;;;;;;5057419;28;20041;-68
2023/10/31 12:29:37;;;;;;;1.80;0.80;;;15.70;97.60;;;;;;5058132;28;20060;-75
2023/10/31 12:32:23;;;;;;;2.78;1.20;;;15.60;97.50;;;;;;5065631;28;20064;-79
2023/10/31 12:35:19;;;;;;;2.08;1.58;;;15.50;97.50;;;;;;5060497;28;20063;-77
2023/10/31 12:38:07;;;;;;;1.42;1.00;;;15.60;97.60;;;;;;5065761;28;20478;-77
2023/10/31 12:40:53;;;;;;;1.10;0.77;;;15.60;97.60;;;;;;5066085;28;20048;-74
2023/10/31 12:43:39;;;;;;;1.27;1.05;;;15.60;97.50;;;;;;5060823;28;20052;-74
2023/10/31 12:46:29;;;;;;;0.98;0.88;;;15.60;97.50;;;;;;5063057;28;20725;-74
2023/10/31 12:49:19;;;;;;;1.33;0.90;;;15.60;97.40;;;;;;5058444;28;20182;-72
2023/10/31 12:52:05;;;;;;;1.65;1.20;;;15.60;97.20;;;;;;5065793;28;20040;-71
2023/10/31 12:54:51;;;;;;;1.80;0.70;;;15.60;97.20;;;;;;5056835;28;20172;-72
2023/10/31 12:57:37;;;;;;;1.33;0.90;;;15.50;97.10;;;;;;5063150;28;20045;-72
2023/10/31 13:00:31;;;;;;;1.08;0.80;;;15.50;97.10;;;;;;5059230;28;20044;-71
2023/10/31 13:03:19;;;;;;;4.07;0.73;;;15.50;97.10;;;;;;5046144;28;20037;-72
2023/10/31 13:06:15;;;;;;;0.50;0.50;;;15.50;97.10;;;;;;5060015;28;20554;-71
2023/10/31 13:09:03;;;;;;;1.23;0.93;;;15.50;97.10;;;;;;5060266;28;20036;-71
2023/10/31 13:11:49;;;;;;;1.25;0.80;;;15.50;97.10;;;;;;5062846;28;20040;-72
2023/10/31 13:14:36;;;;;;;1.17;0.82;;;15.50;97.10;;;;;;5061226;28;20047;-71
2023/10/31 13:17:22;;;;;;;1.42;0.80;;;15.50;97.10;;;;;;5057077;28;20048;-71
2023/10/31 13:20:12;;;;;;;3.33;0.90;;;15.50;97.20;;;;;;5060124;28;20052;-72
2023/10/31 13:23:02;;;;;;;3.42;1.40;;;15.50;97.20;;;;;;5061766;28;20059;-70
2023/10/31 13:25:48;;;;;;;1.73;1.27;;;15.50;97.20;;;;;;5058435;28;20055;-72
2023/10/31 13:28:34;;;;;;;1.30;1.00;;;15.50;97.20;;;;;;5057818;28;20057;-71
2023/10/31 13:31:20;;;;;;;1.45;0.90;;;15.40;97.20;;;;;;5054521;28;20475;-70
2023/10/31 13:34:06;;;;;;;1.58;1.17;;;15.50;97.20;;;;;;5063841;28;20044;-75
2023/10/31 13:36:52;;;;;;;2.30;0.80;;;15.50;97.30;;;;;;5071322;28;20044;-76
2023/10/31 13:39:38;;;;;;;1.10;0.90;;;15.50;97.30;;;;;;5058043;28;20060;-75
2023/10/31 13:42:25;;;;;;;0.93;0.85;;;15.50;97.30;;;;;;5063376;28;20399;-74
2023/10/31 13:45:11;;;;;;;1.38;1.00;;;15.50;97.20;;;;;;5062017;28;20048;-75
2023/10/31 13:47:57;;;;;;;1.75;0.88;;;15.40;97.30;;;;;;5056300;28;20498;-75
2023/10/31 13:50:43;;;;;;;1.05;0.85;;;15.40;97.50;;;;;;5064367;28;20040;-74
2023/10/31 13:53:29;;;;;;;0.73;0.60;;;15.40;97.40;;;;;;5062762;28;20045;-74
2023/10/31 13:56:15;;;;;;;1.02;0.77;;;15.40;97.50;;;;;;5060808;28;20047;-74
2023/10/31 13:59:01;;;;;;;0.60;0.60;;;15.30;97.60;;;;;;5064061;28;20045;-74
2023/10/31 14:01:47;;;;;;;1.75;0.80;;;15.30;97.70;;;;;;5056527;28;20486;-79
2023/10/31 14:04:33;;;;;;;1.63;0.50;;;15.20;97.90;;;;;;5061134;28;20049;-75
2023/10/31 14:07:23;;;;;;;1.27;0.73;;;15.20;97.90;;;;;;5053140;28;20148;-75
2023/10/31 14:10:09;;;;;;;1.52;0.70;;;15.10;98.00;;;;;;5056958;28;20049;-74
2023/10/31 14:12:55;;;;;;;2.42;0.90;;;15.10;98.20;;;;;;5065596;28;20387;-74
2023/10/31 14:15:41;;;;;;;1.58;0.73;;;15.00;98.30;;;;;;5062191;28;20481;-74
2023/10/31 14:18:28;;;;;;;1.05;0.60;;;15.00;98.40;;;;;;5057382;28;20475;-75
2023/10/31 14:21:14;;;;;;;0.77;0.70;;;14.90;98.50;;;;;;5060491;28;20417;-74
2023/10/31 14:24:00;;;;;;;3.00;0.90;;;14.90;98.70;;;;;;5058676;28;20116;-74
2023/10/31 14:26:46;;;;;;;2.38;0.90;;;14.80;98.90;;;;;;5058728;28;20052;-75